航空気象通報

ウインドサーファーのための航空気象通報による風予報です。

6/29-7/1の航空気象通報

2016年06月29日 23時34分42秒 | TAF

羽田空港
TAF RJTT 291109Z 2912/3018 14006KT 8000 FEW010 BKN020
BECMG 2921/2923 04005KT
BECMG 3003/3006 10006KT
BECMG 3012/3015 04005KT
日本時間29日21時-30日06時:140度から6ノットの風
06-08時:風が変化
08-12時:040度から5ノットの風
12-15時:風が変化
15-21時:100度から6ノットの風
21-24時:風が変化
1日00-03時:040度から5ノットの風

静岡空港
TAF RJNS 291107Z 2912/3018 04004KT 6000 -SHRA FEW005 BKN008
TEMPO 2912/2917 1500 -SHRA BR FEW001 BKN003
TEMPO 2917/2924 3000 -SHRA BR FEW003 BKN005
BECMG 3000/3003 27006KT FEW010 SCT020
日本時間29日21時-30日09時:040度から4ノットの風
09-12時:風が変化
12時-1日03時:270度から6ノットの風

福岡空港
TAF RJFF 291107Z 2912/3018 15006KT 9000 -SHRA FEW010 SCT020 BKN030
BECMG 3003/3006 31008KT
BECMG 3009/3012 15005KT
日本時間29日21時-30日12時:150度から6ノットの風
12-15時:風が変化
15-18時:310度から8ノットの風
18-21時:風が変化
21時-1日03時:150度から5ノットの風

那覇空港
TAF ROAH 291105Z 2912/3018 17007KT 9999 FEW020
日本時間29日21時-1日03時:170度から7ノットの風

石垣空港
TAF ROIG 291107Z 2912/3018 17005KT 9999 FEW020 SCT035
日本時間29日21時-1日03時:170度から5ノットの風

マウイのカフルイ空港
PHOG 291120Z 2912/3012 05008KT P6SM SCT050
FM292000 06018G26KT P6SM FEW030 SCT050
FM300600 06011KT P6SM FEW030 SCT050 AMD LTD TO VIS AND WIND TIL 291600
ハワイ時間29日02-10時:050度から8ノットの風
10-20時:060度から18ノット、突風26ノット
20時-30日02時:060度から11ノットの風

サイパン空港
TAF PGSN 291124Z 2912/3012 06012KT P6SM VCSH SCT022 BKN110
マリアナ時間29日22時-30日22時:060度から12ノットの風

コメント

6/27-6/29の航空気象通報

2016年06月28日 00時44分19秒 | TAF

羽田空港
TAF RJTT 271105Z 2712/2818 18010KT 9999 FEW020
TEMPO 2718/2724 4000 RA BR FEW003 BKN008
BECMG 2720/2722 35012KT
BECMG 2806/2809 05007KT
日本時間27日21時-28日05時:180度から10ノットの風
05-07時:風が変化
07-15時:350度から12ノットの風
15-18時:風が変化
18時-29日03時:050度から7ノットの風

但し、28日03-09時の間:ときどき

静岡空港
TAF RJNS 271105Z 2712/2818 28005KT 6000 -SHRA FEW005 BKN012
BECMG 2715/2717 05005KT
TEMPO 2715/2718 4000 -SHRA BR FEW005 BKN008
TEMPO 2718/2724 3000 SHRA BR FEW003 BKN005
BECMG 2803/2806 25010KT
日本時間27日21-24時:280度から5ノットの風
28日00-12時:050度から5ノットの風
12-15時:風が変化
15時-29日03時:250度から10ノットの風

福岡空港
TAF AMD RJFF 271404Z 2714/2818 34005KT 8000 -SHRA FEW007 SCT010 BKN025
TEMPO 2714/2718 4000 -SHRA BR FEW003 BKN006 BKN010
BECMG 2720/2722 14005KT
TEMPO 2721/2803 4000 SHRA BR
日本時間27日21時-28日05時:340度から5ノットの風
05-07時:風が変化
07時-29日03時:140度から5ノットの風

那覇空港
TAF ROAH 271105Z 2712/2818 18011KT 9999 FEW015
日本時間27日21時-29日03時:180度から11ノットの風

石垣空港
TAF ROIG 271109Z 2712/2818 19012KT 9999 FEW020
日本時間27日21時-29日03時:190度から12ノットの風

マウイのカフルイ空港
PHOG 271126Z 2712/2812 05010KT P6SM VCSH FEW030 SCT060
FM272000 04017G25KT P6SM FEW030 SCT060
FM280600 05011KT P6SM SCT030 SCT060 AMD LTD TO VIS AND WIND TIL 271600
ハワイ時間27日02-10時:050度から10ノットの風
10-20時:040度から17ノット、突風25ノット
20時-28日02時:050度から11ノットの風

サイパン空港
TAF PGSN 271121Z 2712/2812 09011KT P6SM VCSH SCT019 BKN110
マリアナ時間27日22時-28日22時:090度から11ノットの風

コメント

6/26-6/28の航空気象通報

2016年06月26日 20時33分42秒 | TAF
羽田空港
TAF RJTT 261110Z 2612/2718 20010KT 9999 FEW020
BECMG 2612/2614 31008KT
BECMG 2616/2618 03012KT
BECMG 2700/2703 08008KT
BECMG 2706/2709 18012KT
日本時間26日21時:200度から10ノットの風
21-23時:風が変化
23時-27日01時:310度から8ノットの風
01-03時:風が変化
03-09時:030度から12ノットの風
09-12時:風が変化
12-15時:080度から8ノットの風
15-18時:風が変化
18時-28日03時:180度から12ノットの風


静岡空港
TAF RJNS 261106Z 2612/2718 27010KT 9999 FEW030
BECMG 2622/2624 12008KT
BECMG 2706/2709 22004KT
BECMG 2715/2718 04005KT
TEMPO 2715/2718 4000 -SHRA BR FEW005 BKN008
日本時間26日21時-27日07時:270度から10ノットの風
07-09時:風が変化
09-15時:120度から8ノットの風
15-18時:風が変化
18-24時:220度から4ノットの風
28日00-03時:風が変化
03時:040度から5ノットの風

但し、28日00-03時の間:ときどき

福岡空港
TAF RJFF 261111Z 2612/2718 35005KT 9999 FEW030
BECMG 2612/2614 15005KT
日本時間26日21時:350度から5ノットの風
21-23時:風が変化
23時-28日03時:150度から5ノットの風


那覇空港
TAF ROAH 261111Z 2612/2718 02008KT 9999 FEW010 BKN020
TEMPO 2612/2614 3000 TSRA FEW008 BKN015 SCT020CB
BECMG 2613/2615 19010KT
日本時間26日21-22時:020度から8ノットの風
22-24時:風が変化
27日00時-28日03時:190度から10ノットの風

但し、26日21-23時の間:ときどき

石垣空港
TAF ROIG 261113Z 2612/2718 19006KT 9999 FEW020
日本時間26日21時-28日03時:190度から6ノットの風


マウイのカフルイ空港
PHOG 261120Z 2612/2712 05009KT P6SM FEW030 SCT060 BKN250
FM261900 05017G23KT P6SM FEW035 SCT050
FM270500 05010KT P6SM FEW030 SCT050 AMD LTD TO VIS AND WIND TIL 261600
日本時間26日02-09時:050度から9ノットの風

09-19時:050度から17ノット、突風23ノット
19時-27日02時:050度から10ノットの風


サイパン空港
TAF PGSN 261125Z 2612/2712 08010KT P6SM VCSH FEW020 SCT050
日本時間26日22時-27日22時:080度から10ノットの風
コメント

6/25-6/27の航空気象通報

2016年06月25日 22時48分34秒 | TAF

羽田空港
TAF RJTT 251105Z 2512/2618 21016KT 9999 FEW020
BECMG 2612/2615 36006KT
日本時間25日21時-26日21時:210度から16ノットの風
21-24時:風が変化
27日00-03時:360度から6ノットの風

静岡空港
TAF RJNS 251105Z 2512/2618 25014KT 9999 FEW020 BKN050
TEMPO 2512/2514 25020G30KT
TEMPO 2600/2609 23020G30KT
日本時間25日21時-27日03時:250度から14ノットの風
但し、25日21-23時の間:ときどき250度から20ノット、突風30ノット
但し、26日09-18時の間:ときどき230度から20ノット、突風30ノット

福岡空港
TAF RJFF 251107Z 2512/2618 17008KT 9999 FEW015
BECMG 2521/2523 29011KT
BECMG 2609/2612 15005KT
日本時間25日21時-26日06時:170度から8ノットの風
06-08時:風が変化
08-18時:290度から11ノットの風
18-21時:風が変化
21時-27日03時:150度から5ノットの風

那覇空港
TAF AMD ROAH 251200Z 2512/2618 21010KT 9999 FEW010 BKN015
TEMPO 2512/2519 3000 TSRA FEW008 BKN015 SCT020CB
TEMPO 2519/2606 4000 SHRA FEW008 BKN015 FEW020CB
BECMG 2603/2606 13008KT
日本時間25日21時-26日12時:210度から10ノットの風
12-15時:風が変化
15時-27日03時:130度から8ノットの風

但し、25日21時-26日04時の間:ときどき
但し、26日04-15時の間:ときどき

石垣空港
TAF ROIG 251116Z 2512/2618 21010KT 9999 FEW015 SCT025
日本時間25日21時-27日03時:210度から10ノットの風

マウイのカフルイ空港
PHOG 251120Z 2512/2612 06008G14KT P6SM VCSH FEW030 BKN050
FM252000 05017G25KT P6SM FEW030 SCT050
FM260500 05008G14KT P6SM FEW030 SCT050 AMD LTD TO VIS AND WIND TIL 251600
ハワイ時間25日02-10時:060度から8ノット、突風14ノット
10-19時:050度から17ノット、突風25ノット
19時-26日02時:050度から8ノット、突風14ノット

サイパン空港
TAF PGSN 251139Z 2512/2612 09015KT P6SM VCSH SCT020 SCT050
マリアナ時間25日22時-26日22時:090度から15ノットの風

コメント

6/24-6/26の航空気象通報

2016年06月25日 01時02分33秒 | TAF

羽田空港
TAF RJTT 241109Z 2412/2518 19014KT 8000 -SHRA FEW008 BKN012
BECMG 2415/2417 21020G30KT
TEMPO 2416/2419 4000 SHRA BR FEW005 BKN008
TEMPO 2419/2422 20028G40KT 4000 SHRA BR FEW005 BKN008
BECMG 2515/2518 23010KT
日本時間24日21-24時:190度から14ノットの風
25日00-02時:風が変化
02-24時:210度から20ノット、突風30ノット
26日00-03時:風が変化
03時:230度から10ノットの風

静岡空港
TAF RJNS 241114Z 2412/2518 06005KT 6000 -SHRA FEW012 BKN020
TEMPO 2412/2418 4000 -SHRA BR FEW003 BKN005
BECMG 2413/2415 22005KT
BECMG 2416/2418 23020KT
TEMPO 2418/2421 22026G36KT 2000 TSRA BR FEW003 BKN005 FEW020CB
TEMPO 2421/2423 24020G30KT
日本時間24日21-22時:060度から5ノットの風
22-24時:風が変化
25日00-01時:220度から5ノットの風
01-03時:風が変化
03時-26日03時:230度から20ノットの風
但し、25日03-06時の間:ときどき220度から26ノット、突風36ノット
但し、25日06-08時の間:ときどき240度から20ノット、突風30ノット

但し、24日03-06時の間:ときどき

福岡空港
TAF RJFF 241114Z 2412/2518 22012KT 9999 FEW005 SCT015 BKN025
BECMG 2412/2414 25006KT
BECMG 2419/2421 20010KT
日本時間24日21時:220度から12ノットの風
21-23時:風が変化
23時-25日04時:250度から6ノットの風
04-06時:風が変化
06時-26日03時:200度から10ノットの風

那覇空港
TAF ROAH 241106Z 2412/2518 20011KT 9999 FEW015 SCT030
TEMPO 2512/2518 SHRA SCT010 BKN020 FEW025CB
日本時間24日21時-26日03時:200度から11ノットの風

但し、25日21時-26日03時の間:ときどき

石垣空港
TAF ROIG 241109Z 2412/2518 21007KT 9999 FEW015 SCT030
日本時間24日21時-26日03時:210度から7ノットの風

マウイのカフルイ空港
PHOG 241130Z 2412/2512 05010KT P6SM VCSH FEW030 SCT050
FM242000 04017G27KT P6SM VCSH SCT030 BKN050
FM250500 05010KT P6SM VCSH FEW030 BKN050 AMD LTD TO VIS AND WIND TIL 241600
ハワイ時間24日02-10時:050度から10ノットの風

10-19時:040度から17ノット、突風27ノット
19時-26日02時:050度から10ノットの風

サイパン空港
TAF PGSN 241125Z 2412/2512 09010KT P6SM VCSH FEW018 BKN110
マリアナ時間24日22時-26日22時:090度から10ノットの風

コメント